createdAt,value
2018-11-11T00:01:46.601Z,8.50
2018-11-11T00:06:50.850Z,8.40
2018-11-11T00:12:09.615Z,8.40
2018-11-11T00:17:13.487Z,8.40
2018-11-11T00:22:17.374Z,8.40
2018-11-11T00:27:21.257Z,8.40
2018-11-11T00:32:25.127Z,8.40
2018-11-11T00:42:32.588Z,8.30
2018-11-11T00:47:36.424Z,8.30
2018-11-11T00:52:40.319Z,8.30
2018-11-11T00:57:44.553Z,8.30
2018-11-11T01:02:48.419Z,8.30
2018-11-11T01:07:52.283Z,8.30
2018-11-11T01:12:56.171Z,8.30
2018-11-11T01:18:00.071Z,8.20
2018-11-11T01:28:07.479Z,8.20
2018-11-11T01:33:11.379Z,8.20
2018-11-11T01:38:15.235Z,8.20
2018-11-11T01:43:19.091Z,8.30
2018-11-11T01:48:22.947Z,8.30
2018-11-11T01:53:26.819Z,8.30
2018-11-11T02:03:34.214Z,8.30
2018-11-11T02:08:38.080Z,8.30
2018-11-11T02:13:41.964Z,8.40
2018-11-11T02:18:45.864Z,8.30
2018-11-11T02:23:49.739Z,8.30
2018-11-11T02:28:53.606Z,8.30
2018-11-11T02:33:57.467Z,8.30
2018-11-11T02:44:04.910Z,8.30
2018-11-11T02:49:08.769Z,8.30
2018-11-11T02:54:12.898Z,8.30
2018-11-11T02:59:16.750Z,8.30
2018-11-11T03:04:20.651Z,8.20
2018-11-11T03:09:24.483Z,8.30
2018-11-11T03:14:28.371Z,8.40
2018-11-11T03:24:35.833Z,8.40
2018-11-11T03:29:39.696Z,8.40
2018-11-11T03:34:43.542Z,8.40
2018-11-11T03:54:57.976Z,8.20
2018-11-11T04:00:01.855Z,8.20
2018-11-11T04:05:05.875Z,8.20
2018-11-11T04:10:12.165Z,8.10
2018-11-11T04:15:17.380Z,8.20
2018-11-11T04:25:24.953Z,8.10
2018-11-11T04:30:28.943Z,8.10
2018-11-11T04:35:32.815Z,8.10
2018-11-11T04:40:36.663Z,8.10
2018-11-11T04:45:40.542Z,8.20
2018-11-11T04:50:44.390Z,8.20
2018-11-11T05:00:52.239Z,8.30
2018-11-11T05:05:57.966Z,8.30
2018-11-11T05:11:01.833Z,8.20
2018-11-11T05:16:05.707Z,8.30
2018-11-11T05:21:09.609Z,8.20
2018-11-11T05:26:13.471Z,8.20
2018-11-11T05:31:17.327Z,8.20
2018-11-11T05:36:21.185Z,8.20
2018-11-11T05:46:28.791Z,8.20
2018-11-11T05:51:32.663Z,8.20
2018-11-11T05:56:36.522Z,8.20
2018-11-11T06:01:40.413Z,8.20
2018-11-11T06:06:44.295Z,8.20
2018-11-11T06:11:48.195Z,8.20
2018-11-11T06:16:52.090Z,8.20
2018-11-11T06:26:59.466Z,8.20
2018-11-11T06:32:03.383Z,8.20
2018-11-11T06:37:07.237Z,8.20
2018-11-11T06:42:11.180Z,8.20
2018-11-11T06:47:15.047Z,8.30
2018-11-11T06:52:18.948Z,8.30
2018-11-11T06:57:22.815Z,8.40
2018-11-11T07:22:44.463Z,8.60
2018-11-11T07:27:48.326Z,8.50
2018-11-11T07:32:52.292Z,8.60
2018-11-11T07:58:16.533Z,8.60
2018-11-11T08:13:32.466Z,8.60
2018-11-11T08:18:36.498Z,8.70
2018-11-11T08:28:43.905Z,8.70
2018-11-11T08:33:49.019Z,8.70
2018-11-11T08:49:00.055Z,8.70
2018-11-11T08:54:04.138Z,8.80
2018-11-11T09:04:11.766Z,8.80
2018-11-11T09:09:15.626Z,8.90
2018-11-11T09:24:26.605Z,9.10
2018-11-11T09:34:34.003Z,8.70
2018-11-11T09:44:41.426Z,8.60
2018-11-11T09:49:45.356Z,8.70
2018-11-11T09:54:49.275Z,8.70
2018-11-11T09:59:53.316Z,8.80
2018-11-11T10:05:00.788Z,8.90
2018-11-11T10:10:10.372Z,8.90
2018-11-11T10:15:29.559Z,9.00
2018-11-11T10:20:37.284Z,9.00
2018-11-11T10:25:47.620Z,9.00
2018-11-11T10:31:04.378Z,9.10
2018-11-11T10:36:13.572Z,9.10
2018-11-11T10:41:28.807Z,9.20
2018-11-11T10:46:41.646Z,9.20
2018-11-11T10:51:45.507Z,9.30
2018-11-11T10:56:49.362Z,9.30
2018-11-11T11:01:58.703Z,9.30
2018-11-11T11:07:06.415Z,9.40
2018-11-11T11:12:10.345Z,9.40
2018-11-11T11:17:14.235Z,9.30
2018-11-11T11:22:18.116Z,9.30
2018-11-11T11:27:22.142Z,9.30
2018-11-11T11:32:26.001Z,9.50
2018-11-11T11:37:29.830Z,9.80
2018-11-11T11:42:33.753Z,9.70
2018-11-11T11:47:37.839Z,9.60
2018-11-11T11:52:42.152Z,9.60
2018-11-11T11:57:56.175Z,9.60
2018-11-11T12:03:00.218Z,10.00
2018-11-11T12:08:04.427Z,10.00
2018-11-11T12:13:09.261Z,10.00
2018-11-11T12:18:13.117Z,10.00
2018-11-11T12:23:17.194Z,9.90
2018-11-11T12:28:20.832Z,10.10
2018-11-11T12:33:24.694Z,10.40
2018-11-11T12:38:28.612Z,10.50
2018-11-11T12:43:32.483Z,10.80
2018-11-11T12:48:42.747Z,10.60
2018-11-11T12:53:46.591Z,10.40
2018-11-11T12:58:50.510Z,10.20
2018-11-11T13:03:54.371Z,10.30
2018-11-11T13:08:58.334Z,10.50
2018-11-11T13:14:02.224Z,10.60
2018-11-11T13:19:06.849Z,10.80
2018-11-11T13:24:10.716Z,11.20
2018-11-11T13:29:15.040Z,11.50
2018-11-11T13:34:18.903Z,11.70
2018-11-11T13:39:22.767Z,11.60
2018-11-11T13:44:26.722Z,11.50
2018-11-11T13:49:30.610Z,11.50
2018-11-11T13:54:34.535Z,11.60
2018-11-11T13:59:38.447Z,11.40
2018-11-11T14:04:42.304Z,11.40
2018-11-11T14:09:46.157Z,11.30
2018-11-11T14:14:50.026Z,11.20
2018-11-11T14:19:54.141Z,11.30
2018-11-11T14:24:58.020Z,11.60
2018-11-11T14:30:02.011Z,11.40
2018-11-11T14:35:06.557Z,11.40
2018-11-11T14:40:21.620Z,11.20
2018-11-11T14:45:25.858Z,11.50
2018-11-11T14:50:29.794Z,11.60
2018-11-11T14:55:33.661Z,11.30
2018-11-11T15:00:37.514Z,11.00
2018-11-11T15:05:41.411Z,10.80
2018-11-11T15:10:45.331Z,10.60
2018-11-11T15:15:49.240Z,10.40
2018-11-11T15:20:53.224Z,10.40
2018-11-11T15:25:56.978Z,10.20
2018-11-11T15:31:01.522Z,10.20
2018-11-11T15:36:05.624Z,10.00
2018-11-11T15:41:09.925Z,9.90
2018-11-11T15:46:13.821Z,9.70
2018-11-11T15:51:18.473Z,9.50
2018-11-11T15:56:23.975Z,9.40
2018-11-11T16:01:30.035Z,9.30
2018-11-11T16:06:34.910Z,9.10
2018-11-11T16:11:39.448Z,9.10
2018-11-11T16:16:43.845Z,8.90
2018-11-11T16:21:48.500Z,8.90
2018-11-11T16:26:52.847Z,8.70
2018-11-11T16:31:59.175Z,8.70
2018-11-11T16:37:03.109Z,8.70
2018-11-11T16:42:08.133Z,8.60
2018-11-11T16:47:12.861Z,8.50
2018-11-11T16:52:16.778Z,8.20
2018-11-11T16:57:20.930Z,8.30
2018-11-11T17:02:24.947Z,8.20
2018-11-11T17:07:28.870Z,8.10
2018-11-11T17:12:33.085Z,8.00
2018-11-11T17:17:37.068Z,8.00
2018-11-11T17:22:42.052Z,7.80
2018-11-11T17:27:46.636Z,7.70
2018-11-11T17:32:51.282Z,7.60
2018-11-11T17:37:55.242Z,7.70
2018-11-11T17:42:59.860Z,7.60
2018-11-11T17:48:03.819Z,7.60
2018-11-11T17:58:11.921Z,7.40
2018-11-11T18:03:15.848Z,7.20
2018-11-11T18:38:43.851Z,6.90
2018-11-11T19:14:16.343Z,6.90
2018-11-11T19:19:20.613Z,6.90
2018-11-11T19:24:24.611Z,7.00
2018-11-11T19:39:36.857Z,7.10
2018-11-11T19:59:53.366Z,7.00
2018-11-11T20:25:13.602Z,6.80
2018-11-11T20:30:20.283Z,6.80
2018-11-11T20:35:26.512Z,6.80
2018-11-11T20:40:30.377Z,6.80
2018-11-11T20:55:44.141Z,6.60
2018-11-11T21:05:51.536Z,6.70
2018-11-11T21:10:55.415Z,6.80
2018-11-11T22:06:38.398Z,6.50
2018-11-11T22:16:45.859Z,6.50
2018-11-11T22:21:50.096Z,6.40
2018-11-11T22:37:01.748Z,6.10
2018-11-11T22:42:06.107Z,6.00
2018-11-11T22:47:09.929Z,5.80
2018-11-11T22:52:15.132Z,5.80
2018-11-11T22:57:19.118Z,5.70
2018-11-11T23:02:23.182Z,5.70
2018-11-11T23:07:27.294Z,5.60
2018-11-11T23:12:31.470Z,5.50
2018-11-11T23:17:35.725Z,5.60
2018-11-11T23:22:40.208Z,5.50
2018-11-11T23:32:48.516Z,5.20
2018-11-11T23:37:52.679Z,5.20
2018-11-11T23:42:56.855Z,5.20
2018-11-11T23:48:00.693Z,5.10
2018-11-11T23:53:04.650Z,5.10
2018-11-11T23:58:08.530Z,5.20
